Time;durP1;ratioP1;P1;durP2;ratioP2;P2;SDS_P1;SDS_P2;PMS_P1;PMS_P2;Temp;Humidity;BMP_temperature;BMP_pressure;BME280_temperature;BME280_humidity;BME280_pressure;Samples;Min_cycle;Max_cycle;Signal;HPM_P1;HPM_P2
2021/07/30 00:12:11;;;;;;;8.03;6.80;;;19.30;87.60;;;;;;4730197;30;20240;-82
2021/07/30 01:30:37;;;;;;;8.20;6.17;;;20.20;84.10;;;;;;4495377;31;20265;-82
2021/07/30 03:46:51;;;;;;;11.40;6.27;;;19.50;85.00;;;;;;4694930;30;20228;-82
2021/07/30 04:25:53;;;;;;;9.27;6.40;;;20.20;84.10;;;;;;4669081;30;20234;-85
2021/07/30 04:50:48;;;;;;;8.33;6.50;;;20.30;83.70;;;;;;4909339;29;20301;-84
2021/07/30 05:10:35;;;;;;;7.40;6.13;;;20.90;83.40;;;;;;4778610;29;20717;-84
2021/07/30 05:49:41;;;;;;;6.78;5.95;;;21.70;81.70;;;;;;4675343;30;20345;-82
2021/07/30 06:09:58;;;;;;;9.48;6.05;;;22.40;81.20;;;;;;4687738;30;20289;-83
2021/07/30 07:34:26;;;;;;;5.32;4.80;;;25.00;77.90;;;;;;4720837;30;20393;-79
2021/07/30 09:33:49;;;;;;;6.20;4.10;;;25.30;68.30;;;;;;4836727;29;20216;-83
2021/07/30 09:54:06;;;;;;;4.53;3.92;;;25.30;67.50;;;;;;4838768;29;20330;-82
2021/07/30 10:18:54;;;;;;;5.53;3.88;;;25.80;68.80;;;;;;4634334;30;20219;-83
2021/07/30 11:14:37;;;;;;;4.70;3.97;;;25.60;66.90;;;;;;4704900;30;20250;-83
2021/07/30 11:20:17;;;;;;;5.10;3.60;;;25.90;67.20;;;;;;4706803;30;20712;-83
2021/07/30 11:23:06;;;;;;;4.78;3.47;;;26.00;65.80;;;;;;4734952;30;20340;-81
2021/07/30 11:25:34;;;;;;;5.95;3.90;;;25.70;65.70;;;;;;4792817;29;20370;-82
2021/07/30 11:28:06;;;;;;;4.35;3.95;;;25.60;66.70;;;;;;4849153;29;20220;-81
2021/07/30 11:30:39;;;;;;;6.90;3.97;;;25.60;66.90;;;;;;4850056;29;20240;-82
2021/07/30 11:33:08;;;;;;;5.30;3.67;;;25.80;66.40;;;;;;4838241;29;20458;-82
2021/07/30 11:35:40;;;;;;;5.30;3.60;;;26.00;66.20;;;;;;4899328;28;20239;-82
2021/07/30 11:38:10;;;;;;;5.35;4.22;;;26.00;65.50;;;;;;4936879;28;20229;-83
2021/07/30 11:40:39;;;;;;;5.40;3.83;;;25.90;65.50;;;;;;4928981;28;20211;-83
2021/07/30 11:43:09;;;;;;;3.88;3.55;;;25.90;66.70;;;;;;4928482;28;20256;-85
2021/07/30 11:45:42;;;;;;;5.45;3.63;;;25.90;66.10;;;;;;4931349;28;20217;-84
2021/07/30 11:48:12;;;;;;;4.10;3.55;;;26.10;66.40;;;;;;4947490;28;20266;-81
2021/07/30 11:50:42;;;;;;;5.00;3.88;;;26.40;66.30;;;;;;4980180;28;20227;-84
2021/07/30 11:53:10;;;;;;;6.32;3.88;;;26.50;65.90;;;;;;4991146;28;20234;-84
2021/07/30 11:55:41;;;;;;;4.90;3.53;;;26.50;65.50;;;;;;5084591;28;20216;-85
2021/07/30 11:58:12;;;;;;;4.50;3.92;;;26.40;65.40;;;;;;5087323;28;20235;-84
2021/07/30 12:00:42;;;;;;;3.97;3.30;;;26.30;65.10;;;;;;5086516;28;20208;-82
2021/07/30 12:03:21;;;;;;;4.93;3.90;;;26.30;65.00;;;;;;5095380;28;20553;-85
2021/07/30 12:05:52;;;;;;;3.70;3.40;;;26.20;64.90;;;;;;5089056;27;20210;-81
2021/07/30 12:08:24;;;;;;;4.03;3.53;;;26.20;64.60;;;;;;5091464;28;20203;-86
2021/07/30 12:10:53;;;;;;;4.30;3.83;;;26.20;65.00;;;;;;5081573;27;20246;-82
2021/07/30 12:13:26;;;;;;;4.60;3.38;;;26.20;64.50;;;;;;5087476;27;20518;-88
2021/07/30 12:15:57;;;;;;;4.13;3.45;;;26.30;65.10;;;;;;5090307;27;20203;-82
2021/07/30 12:18:28;;;;;;;4.88;3.88;;;26.60;64.70;;;;;;5090020;28;20219;-81
2021/07/30 12:21:05;;;;;;;5.60;3.65;;;26.80;64.20;;;;;;5085394;27;20211;-79
2021/07/30 12:23:35;;;;;;;3.90;3.53;;;26.90;64.20;;;;;;5101663;28;20200;-82
2021/07/30 12:26:03;;;;;;;3.90;3.60;;;27.00;63.80;;;;;;5102783;27;20212;-84
2021/07/30 12:28:42;;;;;;;5.72;3.80;;;26.80;63.60;;;;;;5087398;28;20207;-84
2021/07/30 12:31:16;;;;;;;6.32;3.58;;;26.70;64.10;;;;;;5090894;28;20249;-81
2021/07/30 12:33:45;;;;;;;3.63;3.33;;;26.70;63.90;;;;;;5100086;28;20228;-83
2021/07/30 12:36:19;;;;;;;4.55;3.60;;;26.60;63.80;;;;;;5110594;28;20532;-83
2021/07/30 12:38:57;;;;;;;6.25;3.67;;;26.70;64.70;;;;;;5113493;28;20199;-80
2021/07/30 12:41:30;;;;;;;3.92;3.53;;;26.80;63.60;;;;;;5108378;27;20573;-82
2021/07/30 12:44:10;;;;;;;4.65;4.18;;;26.90;64.10;;;;;;5104894;28;20257;-80
2021/07/30 12:46:43;;;;;;;6.50;3.80;;;27.20;64.40;;;;;;5108664;28;20196;-82
2021/07/30 12:49:13;;;;;;;5.28;3.55;;;27.40;63.80;;;;;;5108939;28;20704;-81
2021/07/30 12:51:44;;;;;;;4.55;3.72;;;27.30;64.10;;;;;;5102454;27;20250;-81
2021/07/30 12:54:14;;;;;;;5.50;4.00;;;27.40;64.40;;;;;;5107177;28;20252;-79
2021/07/30 12:57:03;;;;;;;4.38;3.70;;;27.50;63.60;;;;;;5074714;28;20284;-81
2021/07/30 12:59:52;;;;;;;5.00;3.70;;;27.60;63.00;;;;;;5088621;28;20200;-83
2021/07/30 13:02:24;;;;;;;3.97;3.45;;;27.40;62.80;;;;;;5093070;28;20558;-82
2021/07/30 13:04:54;;;;;;;3.42;3.13;;;27.50;62.90;;;;;;5089356;28;20208;-84
2021/07/30 13:07:25;;;;;;;4.60;3.40;;;27.50;63.50;;;;;;5088226;28;20545;-81
2021/07/30 13:09:55;;;;;;;4.38;3.58;;;27.60;62.70;;;;;;5084120;28;20203;-82
2021/07/30 13:12:24;;;;;;;4.70;3.50;;;27.40;62.30;;;;;;5085999;28;20308;-82
2021/07/30 13:14:53;;;;;;;3.72;3.40;;;27.40;62.10;;;;;;5085560;28;20216;-81
2021/07/30 13:17:27;;;;;;;5.57;3.42;;;27.20;62.10;;;;;;5084984;28;20717;-82
2021/07/30 13:19:56;;;;;;;4.07;3.60;;;27.30;62.40;;;;;;5085923;28;20324;-83
2021/07/30 13:22:25;;;;;;;4.75;3.92;;;27.60;62.90;;;;;;5093018;28;20192;-84
2021/07/30 13:24:53;;;;;;;4.43;3.55;;;28.00;62.70;;;;;;5090684;28;20192;-81
2021/07/30 13:27:22;;;;;;;5.18;3.60;;;28.10;62.10;;;;;;5092577;28;20196;-80
2021/07/30 13:29:51;;;;;;;6.10;3.30;;;28.10;62.40;;;;;;5084574;28;21163;-82
2021/07/30 13:32:20;;;;;;;4.75;3.65;;;28.30;61.90;;;;;;5092264;28;20223;-80
2021/07/30 13:34:50;;;;;;;3.55;3.25;;;28.40;62.30;;;;;;5099994;28;20208;-80
2021/07/30 13:37:18;;;;;;;3.83;3.20;;;28.60;61.70;;;;;;5096816;28;20227;-81
2021/07/30 13:39:47;;;;;;;4.50;3.30;;;28.80;61.20;;;;;;5106642;28;20211;-82
2021/07/30 13:42:16;;;;;;;3.28;2.97;;;28.80;61.20;;;;;;5105875;28;20214;-82
2021/07/30 13:44:45;;;;;;;4.05;3.13;;;28.60;60.70;;;;;;5083724;28;20272;-81
2021/07/30 13:47:13;;;;;;;4.78;2.85;;;28.60;61.10;;;;;;5085047;28;20216;-79
2021/07/30 13:49:43;;;;;;;3.30;3.00;;;28.70;60.50;;;;;;5086009;28;20682;-81
2021/07/30 13:52:13;;;;;;;4.00;3.40;;;28.70;60.30;;;;;;5073405;28;20309;-80
2021/07/30 13:54:42;;;;;;;3.67;3.15;;;28.70;61.10;;;;;;5093968;28;20300;-82
2021/07/30 13:57:11;;;;;;;3.90;3.00;;;28.80;60.10;;;;;;5096884;28;20207;-80
2021/07/30 13:59:40;;;;;;;3.47;3.15;;;29.00;60.60;;;;;;5107732;28;20216;-83
2021/07/30 14:02:09;;;;;;;3.78;3.15;;;29.20;60.10;;;;;;5085011;28;20231;-81
2021/07/30 14:04:38;;;;;;;3.90;3.30;;;28.90;59.20;;;;;;5106301;28;20943;-83
2021/07/30 14:07:07;;;;;;;4.18;2.88;;;29.20;59.90;;;;;;5104071;28;20211;-82
2021/07/30 14:09:39;;;;;;;5.70;3.47;;;29.40;59.30;;;;;;5106658;28;20216;-83
2021/07/30 14:12:08;;;;;;;6.85;3.35;;;30.10;59.00;;;;;;5111888;28;20224;-83
2021/07/30 14:14:39;;;;;;;3.17;2.80;;;30.30;56.60;;;;;;5107821;28;20189;-82
2021/07/30 14:17:07;;;;;;;3.55;3.13;;;30.40;57.00;;;;;;5107384;27;20635;-82
2021/07/30 14:19:37;;;;;;;4.40;3.55;;;30.80;57.00;;;;;;5100971;28;20605;-85
2021/07/30 14:22:07;;;;;;;4.35;3.45;;;31.10;57.10;;;;;;5100980;28;20268;-81
2021/07/30 14:24:37;;;;;;;5.15;3.05;;;31.90;58.40;;;;;;5099714;27;20822;-83
2021/07/30 14:27:08;;;;;;;7.45;3.03;;;32.50;55.30;;;;;;5098320;28;20957;-81
2021/07/30 14:29:37;;;;;;;4.50;3.08;;;32.80;55.20;;;;;;5104158;28;20200;-81
2021/07/30 14:32:06;;;;;;;5.03;3.40;;;33.50;55.00;;;;;;5104638;28;20231;-83
2021/07/30 14:34:37;;;;;;;3.58;3.00;;;33.60;53.60;;;;;;5107277;28;20200;-79
2021/07/30 14:37:05;;;;;;;4.95;3.20;;;33.90;54.20;;;;;;5103103;28;20204;-81
2021/07/30 14:39:34;;;;;;;3.33;2.92;;;33.90;52.60;;;;;;5107825;27;20237;-80
2021/07/30 14:42:05;;;;;;;5.45;3.08;;;33.80;52.30;;;;;;5105099;28;20192;-83
2021/07/30 14:44:38;;;;;;;3.53;2.90;;;33.70;52.40;;;;;;5106333;28;20231;-81
2021/07/30 14:47:07;;;;;;;2.85;2.65;;;33.30;51.70;;;;;;5109224;28;20200;-83
2021/07/30 14:49:40;;;;;;;3.30;2.90;;;33.20;51.60;;;;;;5108739;28;20515;-82
2021/07/30 14:52:09;;;;;;;3.83;3.10;;;32.90;51.70;;;;;;5109811;28;20277;-82
2021/07/30 14:54:38;;;;;;;5.32;3.17;;;33.40;51.40;;;;;;5111565;28;20207;-84
2021/07/30 14:57:09;;;;;;;4.43;2.80;;;33.80;52.90;;;;;;5109753;28;20207;-82
2021/07/30 14:59:38;;;;;;;3.97;3.10;;;33.90;51.30;;;;;;5110307;28;20257;-81
2021/07/30 15:02:06;;;;;;;3.53;2.92;;;34.10;51.50;;;;;;5106112;28;20559;-82
2021/07/30 15:04:35;;;;;;;3.50;2.90;;;34.40;51.60;;;;;;5109039;28;20611;-81
2021/07/30 15:07:04;;;;;;;5.97;2.90;;;34.40;50.60;;;;;;5100101;28;20256;-86
2021/07/30 15:09:34;;;;;;;3.20;2.80;;;34.10;50.30;;;;;;5106466;27;20223;-83
2021/07/30 15:12:04;;;;;;;3.05;2.85;;;34.00;50.80;;;;;;5102896;28;20239;-83
2021/07/30 15:14:35;;;;;;;3.35;3.05;;;34.30;50.10;;;;;;5100952;28;20285;-83
2021/07/30 15:17:05;;;;;;;3.65;3.25;;;34.10;49.20;;;;;;5099610;28;20206;-81
2021/07/30 15:19:33;;;;;;;3.40;2.75;;;34.00;49.60;;;;;;5100872;28;20185;-81
2021/07/30 15:22:02;;;;;;;3.67;3.10;;;34.30;50.10;;;;;;5100873;28;20208;-83
2021/07/30 15:24:32;;;;;;;2.95;2.65;;;34.60;49.70;;;;;;5103729;27;20651;-84
2021/07/30 15:27:00;;;;;;;3.45;2.80;;;34.30;48.40;;;;;;5101623;27;20256;-81
2021/07/30 15:29:29;;;;;;;3.45;2.88;;;33.90;48.60;;;;;;5107900;27;20196;-83
2021/07/30 15:31:59;;;;;;;6.70;2.88;;;34.10;48.80;;;;;;5104564;28;20228;-82
2021/07/30 15:34:28;;;;;;;3.13;2.83;;;34.30;48.70;;;;;;5109314;28;20836;-82
2021/07/30 15:36:57;;;;;;;2.65;2.45;;;34.60;48.60;;;;;;5111825;28;20200;-85
2021/07/30 15:39:28;;;;;;;3.25;2.90;;;34.80;48.50;;;;;;5104569;28;20423;-83
2021/07/30 15:41:57;;;;;;;5.28;3.08;;;34.80;48.30;;;;;;5106851;28;20184;-84
2021/07/30 15:44:25;;;;;;;2.95;2.58;;;35.00;48.20;;;;;;5106987;28;20192;-83
2021/07/30 15:46:54;;;;;;;7.72;3.00;;;34.60;48.20;;;;;;5113843;28;20624;-83
2021/07/30 15:49:24;;;;;;;2.78;2.58;;;34.80;48.20;;;;;;5110995;28;20208;-83
2021/07/30 15:51:53;;;;;;;4.03;3.05;;;34.90;48.40;;;;;;5106151;28;20928;-81
2021/07/30 15:54:21;;;;;;;3.97;3.13;;;35.00;47.90;;;;;;5104480;28;20196;-83
2021/07/30 15:56:50;;;;;;;4.43;2.90;;;34.70;48.50;;;;;;5104262;27;20673;-81
2021/07/30 15:59:19;;;;;;;3.25;2.95;;;34.60;48.90;;;;;;5110998;28;20215;-81
2021/07/30 16:01:48;;;;;;;5.30;2.60;;;34.80;47.70;;;;;;5090335;28;20286;-84
2021/07/30 16:04:17;;;;;;;4.70;2.97;;;34.60;47.50;;;;;;5110888;27;20196;-82
2021/07/30 16:06:49;;;;;;;4.03;2.55;;;34.10;47.10;;;;;;5105729;28;20215;-85
2021/07/30 16:09:18;;;;;;;3.35;3.05;;;33.50;47.00;;;;;;5103546;28;20894;-82
2021/07/30 16:11:48;;;;;;;3.50;2.75;;;32.00;46.70;;;;;;5106022;28;20297;-85
2021/07/30 16:14:16;;;;;;;4.10;2.83;;;30.50;47.40;;;;;;5099808;28;20211;-84
2021/07/30 16:16:45;;;;;;;5.13;2.80;;;29.20;47.80;;;;;;5100523;28;20286;-83
2021/07/30 16:19:14;;;;;;;3.90;2.88;;;28.50;48.40;;;;;;5101552;28;20295;-85
2021/07/30 16:21:43;;;;;;;4.47;3.33;;;27.90;49.30;;;;;;5106430;28;20197;-82
2021/07/30 16:24:13;;;;;;;6.07;3.00;;;27.50;49.80;;;;;;5094233;27;20252;-84
2021/07/30 16:26:49;;;;;;;3.85;3.22;;;27.20;50.70;;;;;;5119787;28;20227;-84
2021/07/30 16:29:18;;;;;;;3.40;3.10;;;27.00;50.30;;;;;;5127136;27;20526;-85
2021/07/30 16:31:47;;;;;;;3.13;2.88;;;26.90;50.50;;;;;;5109012;28;20198;-82
2021/07/30 16:34:16;;;;;;;3.83;3.00;;;26.70;50.50;;;;;;5107130;28;20200;-82
2021/07/30 16:36:44;;;;;;;3.42;3.00;;;26.60;51.20;;;;;;5106981;27;20212;-83
2021/07/30 16:39:14;;;;;;;3.85;2.90;;;26.50;50.80;;;;;;5090373;28;20284;-81
2021/07/30 16:41:43;;;;;;;5.53;2.90;;;26.40;51.00;;;;;;5108307;28;20212;-82
2021/07/30 16:44:12;;;;;;;5.30;2.78;;;26.30;50.90;;;;;;5106632;28;20287;-84
2021/07/30 16:46:41;;;;;;;5.32;3.40;;;26.20;51.50;;;;;;5101762;28;20204;-84
2021/07/30 16:49:10;;;;;;;4.22;2.97;;;26.10;51.50;;;;;;5103817;28;20200;-84
2021/07/30 16:51:39;;;;;;;6.15;3.13;;;26.10;52.20;;;;;;5105429;28;20200;-82
2021/07/30 16:54:08;;;;;;;4.00;3.13;;;26.00;52.30;;;;;;5109742;28;20284;-82
2021/07/30 16:56:38;;;;;;;7.63;3.17;;;25.90;52.50;;;;;;5103702;28;20200;-85
2021/07/30 16:59:06;;;;;;;4.38;2.97;;;25.90;51.30;;;;;;5108400;28;20207;-83
2021/07/30 17:01:35;;;;;;;3.80;2.90;;;25.90;52.00;;;;;;5108888;28;20200;-83
2021/07/30 17:04:04;;;;;;;5.32;2.95;;;25.80;52.60;;;;;;5104708;28;20204;-82
2021/07/30 17:06:34;;;;;;;4.82;2.92;;;25.70;52.30;;;;;;5105687;28;20207;-82
2021/07/30 17:09:03;;;;;;;3.42;3.10;;;25.60;52.80;;;;;;5104566;28;20216;-82
2021/07/30 17:11:31;;;;;;;4.57;3.40;;;25.50;53.20;;;;;;5107757;28;20188;-82
2021/07/30 17:14:02;;;;;;;4.28;3.00;;;25.40;52.70;;;;;;5107021;28;20237;-82
2021/07/30 17:16:31;;;;;;;3.88;3.08;;;25.30;52.80;;;;;;5107808;28;20207;-83
2021/07/30 17:19:01;;;;;;;3.25;2.95;;;25.30;53.20;;;;;;5109559;28;20202;-82
2021/07/30 17:21:29;;;;;;;6.65;3.15;;;25.20;53.50;;;;;;5109726;28;20231;-84
2021/07/30 17:23:59;;;;;;;4.93;3.05;;;25.10;53.60;;;;;;5113708;28;20723;-82
2021/07/30 17:26:27;;;;;;;3.03;2.63;;;25.00;53.50;;;;;;5090339;28;20208;-82
2021/07/30 17:28:56;;;;;;;3.08;2.78;;;24.90;54.30;;;;;;5108464;28;20184;-84
2021/07/30 17:31:28;;;;;;;5.50;2.88;;;24.90;54.70;;;;;;5113213;28;20212;-82
2021/07/30 17:33:56;;;;;;;3.58;3.25;;;24.80;55.10;;;;;;5116058;28;20215;-80
2021/07/30 17:36:31;;;;;;;4.22;3.03;;;24.70;54.80;;;;;;5116905;28;20199;-85
2021/07/30 17:39:00;;;;;;;3.00;2.70;;;24.70;55.20;;;;;;5112578;28;20655;-84
2021/07/30 17:41:28;;;;;;;4.40;3.00;;;24.60;55.20;;;;;;5116007;28;20249;-83
2021/07/30 17:43:57;;;;;;;4.05;3.30;;;24.50;56.10;;;;;;5119662;28;20199;-82
2021/07/30 17:46:27;;;;;;;7.45;3.35;;;24.40;56.20;;;;;;5113667;28;20208;-82
2021/07/30 17:48:56;;;;;;;4.32;3.05;;;24.30;56.40;;;;;;5114102;27;20192;-83
2021/07/30 17:51:25;;;;;;;3.65;2.85;;;24.10;56.70;;;;;;5115489;27;20200;-81
2021/07/30 17:53:55;;;;;;;3.72;3.22;;;24.10;56.40;;;;;;5117363;28;20220;-82
2021/07/30 17:56:23;;;;;;;3.42;3.03;;;24.00;56.40;;;;;;5116714;28;20200;-82
2021/07/30 17:58:57;;;;;;;4.28;3.03;;;23.90;57.20;;;;;;5118777;28;20196;-81
2021/07/30 18:01:56;;;;;;;5.53;3.00;;;23.80;57.50;;;;;;5120794;28;20267;-83
2021/07/30 18:04:25;;;;;;;4.38;3.20;;;23.70;58.60;;;;;;5129446;28;20210;-81
2021/07/30 18:06:54;;;;;;;4.40;2.97;;;23.60;58.80;;;;;;5127906;28;20203;-82
2021/07/30 18:09:23;;;;;;;5.63;3.28;;;23.50;59.20;;;;;;5132451;28;20208;-80
2021/07/30 18:11:52;;;;;;;4.57;3.40;;;23.30;60.00;;;;;;5131391;28;20192;-81
2021/07/30 18:14:25;;;;;;;4.43;3.45;;;23.20;60.10;;;;;;5130048;28;20296;-85
2021/07/30 18:16:54;;;;;;;7.25;3.35;;;23.10;60.60;;;;;;5130935;28;20184;-84
2021/07/30 18:19:30;;;;;;;6.15;3.40;;;23.00;61.00;;;;;;5130312;28;20192;-83
2021/07/30 18:21:58;;;;;;;4.88;3.33;;;22.80;61.40;;;;;;5130829;28;20184;-83
2021/07/30 18:24:27;;;;;;;4.80;3.15;;;22.70;61.90;;;;;;5130941;28;20172;-81
2021/07/30 18:26:55;;;;;;;4.82;3.28;;;22.60;62.40;;;;;;5130464;27;20192;-84
2021/07/30 18:29:24;;;;;;;5.57;3.30;;;22.50;63.10;;;;;;5131495;27;20204;-86
2021/07/30 18:31:53;;;;;;;5.95;3.13;;;22.40;63.90;;;;;;5130804;28;20210;-83
2021/07/30 18:34:22;;;;;;;8.25;3.42;;;22.30;64.50;;;;;;5132696;27;20231;-83
2021/07/30 18:36:52;;;;;;;4.47;3.42;;;22.20;65.60;;;;;;5125800;28;20487;-84
2021/07/30 18:39:21;;;;;;;3.58;3.28;;;21.90;67.00;;;;;;5128156;28;20211;-83
2021/07/30 18:41:50;;;;;;;5.30;3.43;;;21.90;68.60;;;;;;5129273;28;20196;-82
2021/07/30 18:44:20;;;;;;;4.13;3.67;;;21.90;70.30;;;;;;5127057;28;20212;-82
2021/07/30 18:46:49;;;;;;;3.93;3.50;;;21.80;71.80;;;;;;5129832;28;20207;-83
2021/07/30 18:49:18;;;;;;;4.87;3.57;;;21.60;73.00;;;;;;5128737;27;20320;-86
2021/07/30 18:51:47;;;;;;;4.63;3.60;;;21.50;74.40;;;;;;5132524;27;20199;-82
2021/07/30 18:54:17;;;;;;;4.83;3.63;;;21.40;74.70;;;;;;5127285;27;20219;-84
2021/07/30 18:56:45;;;;;;;4.73;3.60;;;21.30;76.10;;;;;;5116166;28;20200;-82
2021/07/30 18:59:14;;;;;;;5.07;3.53;;;21.20;76.50;;;;;;5121852;28;20200;-83
2021/07/30 19:01:43;;;;;;;6.83;3.67;;;21.10;77.20;;;;;;5128895;28;20199;-83
2021/07/30 19:04:12;;;;;;;4.00;3.60;;;21.00;77.90;;;;;;5126063;27;20257;-83
2021/07/30 19:06:41;;;;;;;4.83;3.87;;;21.00;78.70;;;;;;5119772;28;20272;-85
2021/07/30 19:09:10;;;;;;;4.50;4.00;;;20.90;79.30;;;;;;5120649;28;20272;-81
2021/07/30 19:11:40;;;;;;;5.33;3.80;;;20.80;79.70;;;;;;5129624;28;20202;-84
2021/07/30 19:14:10;;;;;;;4.23;3.83;;;20.70;80.50;;;;;;5125881;28;20224;-86
2021/07/30 19:16:38;;;;;;;5.60;4.20;;;20.70;81.70;;;;;;5127237;28;20180;-83
2021/07/30 19:19:07;;;;;;;7.30;4.47;;;20.60;81.80;;;;;;5115577;28;20278;-83
2021/07/30 19:21:36;;;;;;;8.47;4.20;;;20.50;82.00;;;;;;5099554;28;20913;-82
2021/07/30 19:24:05;;;;;;;7.10;4.53;;;20.40;82.10;;;;;;5098011;28;20205;-82
2021/07/30 19:26:34;;;;;;;6.37;4.63;;;20.40;82.80;;;;;;5089844;28;20205;-81
2021/07/30 19:29:04;;;;;;;6.23;4.17;;;20.30;83.30;;;;;;5094052;28;20201;-83
2021/07/30 19:31:34;;;;;;;5.40;4.90;;;20.20;83.30;;;;;;5095304;28;20196;-87
2021/07/30 19:34:03;;;;;;;6.27;4.77;;;20.20;85.10;;;;;;5092227;28;20303;-81
2021/07/30 19:36:32;;;;;;;6.23;4.23;;;20.10;85.30;;;;;;5093772;28;20192;-84
2021/07/30 19:39:00;;;;;;;6.80;4.87;;;20.00;85.70;;;;;;5091125;28;20299;-82
2021/07/30 19:41:31;;;;;;;7.10;4.90;;;20.00;86.40;;;;;;5094499;28;20212;-84
2021/07/30 19:44:00;;;;;;;5.40;4.80;;;19.90;86.10;;;;;;5094414;28;20188;-83
2021/07/30 19:46:31;;;;;;;9.43;5.30;;;19.80;86.20;;;;;;5092745;28;20200;-81
2021/07/30 19:49:00;;;;;;;9.03;4.87;;;19.70;86.40;;;;;;5094266;28;20181;-81
2021/07/30 19:51:31;;;;;;;8.27;5.47;;;19.70;87.00;;;;;;5092705;28;20188;-81
2021/07/30 19:54:02;;;;;;;10.10;5.60;;;19.60;87.00;;;;;;5095221;28;20216;-81
2021/07/30 19:56:36;;;;;;;8.00;5.37;;;19.50;87.00;;;;;;5090960;28;20197;-82
2021/07/30 19:59:05;;;;;;;8.40;5.93;;;19.40;87.30;;;;;;5094882;28;20196;-82
2021/07/30 20:01:36;;;;;;;7.70;5.50;;;19.40;87.60;;;;;;5092930;28;20207;-83
2021/07/30 20:04:07;;;;;;;7.97;5.70;;;19.30;87.70;;;;;;5095564;28;20220;-82
2021/07/30 20:06:36;;;;;;;8.50;6.87;;;19.30;87.90;;;;;;5093197;28;20209;-82
2021/07/30 20:09:05;;;;;;;8.53;6.03;;;19.20;88.40;;;;;;5090864;28;20234;-81
2021/07/30 20:11:34;;;;;;;8.00;6.27;;;19.20;88.50;;;;;;5094905;28;20270;-81
2021/07/30 20:14:03;;;;;;;9.37;6.90;;;19.10;88.60;;;;;;5090466;28;20231;-83
2021/07/30 20:16:32;;;;;;;11.60;7.37;;;19.10;89.10;;;;;;5096918;28;20230;-81
2021/07/30 20:19:03;;;;;;;9.77;6.83;;;19.00;89.20;;;;;;5090190;28;20209;-83
2021/07/30 20:21:32;;;;;;;10.00;6.93;;;18.90;89.20;;;;;;5085356;28;20205;-82
2021/07/30 20:24:02;;;;;;;8.87;6.93;;;18.90;89.40;;;;;;5089584;28;20200;-82
2021/07/30 20:26:31;;;;;;;13.73;7.33;;;18.90;90.00;;;;;;5085462;28;20283;-83
2021/07/30 20:28:59;;;;;;;8.43;7.07;;;18.80;89.90;;;;;;5090131;28;20202;-82
2021/07/30 20:31:28;;;;;;;10.50;7.50;;;18.80;90.00;;;;;;5087128;28;20211;-81
2021/07/30 20:33:56;;;;;;;11.53;7.90;;;18.80;90.00;;;;;;5106933;28;20208;-81
2021/07/30 20:36:27;;;;;;;7.83;6.97;;;18.70;90.20;;;;;;5141686;22;20263;-87
2021/07/30 20:38:56;;;;;;;9.33;7.60;;;18.60;90.20;;;;;;5061744;28;20214;-84
2021/07/30 20:41:24;;;;;;;10.80;7.30;;;18.60;90.40;;;;;;5065097;28;20201;-80
2021/07/30 20:43:53;;;;;;;9.07;7.40;;;18.60;90.50;;;;;;5062209;28;20202;-81
2021/07/30 20:46:22;;;;;;;8.63;6.90;;;18.60;90.70;;;;;;5059870;28;20229;-84
2021/07/30 20:48:51;;;;;;;10.60;8.30;;;18.60;90.70;;;;;;5058877;28;20208;-83
2021/07/30 20:51:20;;;;;;;11.30;7.67;;;18.50;90.80;;;;;;5059993;28;20206;-80
2021/07/30 20:53:50;;;;;;;12.43;8.00;;;18.50;90.90;;;;;;5056884;28;20266;-83
2021/07/30 20:56:23;;;;;;;11.27;7.47;;;18.50;90.90;;;;;;5051314;28;20232;-84
2021/07/30 20:58:54;;;;;;;9.30;7.20;;;18.50;90.80;;;;;;5050666;28;21055;-83
2021/07/30 21:01:27;;;;;;;9.27;7.27;;;18.40;90.60;;;;;;5052062;28;20229;-78
2021/07/30 21:03:58;;;;;;;9.87;7.60;;;18.40;90.70;;;;;;5053234;28;20857;-81
2021/07/30 21:06:27;;;;;;;11.70;7.30;;;18.50;90.50;;;;;;5047845;28;20206;-82
2021/07/30 21:08:59;;;;;;;10.83;8.03;;;18.50;90.30;;;;;;5047229;28;20297;-84
2021/07/30 21:11:28;;;;;;;11.90;7.73;;;18.50;90.50;;;;;;5049056;28;20858;-82
2021/07/30 21:13:57;;;;;;;10.10;8.07;;;18.50;90.80;;;;;;5046950;28;20218;-83
2021/07/30 21:16:25;;;;;;;12.10;7.73;;;18.40;90.80;;;;;;5045452;28;20615;-84
2021/07/30 21:18:56;;;;;;;12.20;8.70;;;18.40;91.10;;;;;;5049188;28;20841;-82
2021/07/30 21:21:24;;;;;;;9.90;8.17;;;18.40;91.30;;;;;;5045755;28;20313;-82
2021/07/30 21:23:53;;;;;;;11.30;8.63;;;18.30;91.30;;;;;;5055651;28;20206;-82
2021/07/30 21:26:25;;;;;;;10.87;8.30;;;18.30;91.40;;;;;;5056472;28;20217;-83
2021/07/30 21:28:53;;;;;;;14.43;9.23;;;18.20;91.30;;;;;;5046817;28;20293;-83
2021/07/30 21:31:22;;;;;;;10.07;8.17;;;18.20;91.50;;;;;;5049552;28;20206;-81
2021/07/30 21:33:51;;;;;;;13.03;8.47;;;18.10;91.80;;;;;;5052738;28;20210;-82
2021/07/30 21:36:19;;;;;;;10.53;8.70;;;18.10;92.30;;;;;;5057803;28;20286;-83
2021/07/30 21:38:48;;;;;;;10.80;8.40;;;18.10;92.50;;;;;;5060476;28;20229;-82
2021/07/30 21:41:18;;;;;;;12.50;8.57;;;18.10;92.60;;;;;;5060499;28;20644;-85
2021/07/30 21:43:48;;;;;;;11.50;8.80;;;18.00;92.40;;;;;;5053883;28;20289;-82
2021/07/30 21:46:17;;;;;;;11.67;9.37;;;18.00;92.40;;;;;;5054912;28;20189;-82
2021/07/30 21:48:47;;;;;;;14.13;9.63;;;17.90;92.40;;;;;;5050795;28;20687;-83
2021/07/30 21:51:17;;;;;;;12.90;9.13;;;17.90;92.30;;;;;;5052486;28;20217;-83
2021/07/30 21:53:45;;;;;;;15.47;9.30;;;17.90;92.40;;;;;;5056331;28;20193;-85
2021/07/30 21:56:14;;;;;;;10.90;8.60;;;17.80;92.40;;;;;;5056145;28;20311;-81
2021/07/30 21:58:43;;;;;;;11.80;9.13;;;17.80;92.70;;;;;;5063580;28;20205;-81
2021/07/30 22:01:18;;;;;;;12.83;9.20;;;17.80;93.00;;;;;;5073885;28;20197;-79
2021/07/30 22:03:48;;;;;;;11.30;8.93;;;17.80;92.70;;;;;;5079328;28;20184;-81
2021/07/30 22:06:18;;;;;;;12.07;9.03;;;17.80;92.60;;;;;;5064587;28;20190;-80
2021/07/30 22:08:47;;;;;;;12.73;8.50;;;17.80;92.80;;;;;;5051405;28;20796;-83
2021/07/30 22:11:16;;;;;;;10.47;8.70;;;17.90;92.40;;;;;;5056108;28;20276;-84
2021/07/30 22:13:47;;;;;;;13.30;9.03;;;17.90;92.20;;;;;;5052731;28;20214;-83
2021/07/30 22:16:18;;;;;;;11.23;8.70;;;17.80;92.20;;;;;;5051216;28;21045;-83
2021/07/30 22:18:48;;;;;;;13.10;8.37;;;17.80;92.30;;;;;;5057361;28;20251;-82
2021/07/30 22:21:16;;;;;;;12.00;8.70;;;17.80;92.60;;;;;;5050111;28;20588;-85
2021/07/30 22:23:45;;;;;;;12.60;8.40;;;17.80;92.90;;;;;;5062551;28;20197;-80
2021/07/30 22:26:14;;;;;;;12.50;8.60;;;17.80;93.90;;;;;;5052410;28;20209;-85
2021/07/30 22:28:42;;;;;;;15.53;8.60;;;17.70;93.70;;;;;;5054594;28;20576;-81
2021/07/30 22:31:12;;;;;;;12.33;8.87;;;17.70;93.60;;;;;;5058769;28;20251;-82
2021/07/30 22:33:43;;;;;;;12.33;9.20;;;17.70;93.30;;;;;;5056212;28;20194;-81
2021/07/30 22:36:14;;;;;;;15.47;9.50;;;17.70;93.70;;;;;;5060828;28;20229;-83
2021/07/30 22:38:43;;;;;;;11.47;8.80;;;17.70;94.40;;;;;;5055157;28;20384;-81
2021/07/30 22:41:38;;;;;;;10.33;8.10;;;17.70;94.80;;;;;;5067210;28;20256;-82
2021/07/30 22:44:07;;;;;;;11.67;8.43;;;17.70;95.10;;;;;;5067807;28;20949;-81
2021/07/30 22:46:36;;;;;;;9.90;8.63;;;17.60;95.20;;;;;;5069089;28;20217;-83
2021/07/30 22:49:07;;;;;;;14.73;9.10;;;17.60;95.50;;;;;;5055240;28;20205;-81
2021/07/30 22:51:36;;;;;;;11.10;8.67;;;17.50;95.60;;;;;;5055549;28;20255;-84
2021/07/30 22:54:05;;;;;;;9.67;8.67;;;17.50;95.70;;;;;;5059248;28;20561;-84
2021/07/30 22:56:33;;;;;;;10.67;8.13;;;17.40;95.70;;;;;;5058862;28;20221;-83
2021/07/30 22:59:02;;;;;;;10.37;8.70;;;17.40;95.40;;;;;;5053893;28;20210;-83
2021/07/30 23:01:31;;;;;;;15.00;8.93;;;17.40;96.20;;;;;;5048946;28;20202;-83
2021/07/30 23:04:00;;;;;;;11.07;8.70;;;17.40;96.60;;;;;;5054111;28;20213;-83
2021/07/30 23:06:30;;;;;;;12.00;8.97;;;17.40;95.90;;;;;;5057805;28;20225;-82
2021/07/30 23:09:00;;;;;;;12.30;8.87;;;17.30;96.60;;;;;;5051064;28;20208;-83
2021/07/30 23:11:28;;;;;;;10.57;9.20;;;17.30;96.70;;;;;;5057219;28;20224;-83
2021/07/30 23:13:57;;;;;;;13.40;8.97;;;17.30;97.00;;;;;;5056022;28;20276;-80
2021/07/30 23:16:26;;;;;;;13.40;9.77;;;17.30;97.00;;;;;;5047482;28;20319;-81
2021/07/30 23:18:55;;;;;;;10.30;9.20;;;17.30;96.60;;;;;;5056648;28;20201;-81
2021/07/30 23:21:24;;;;;;;13.90;10.03;;;17.30;97.00;;;;;;5050244;28;20312;-81
2021/07/30 23:23:54;;;;;;;10.27;9.23;;;17.30;97.80;;;;;;5054579;28;20204;-83
2021/07/30 23:26:22;;;;;;;13.53;9.73;;;17.20;97.60;;;;;;5052439;28;20251;-85
2021/07/30 23:28:52;;;;;;;11.57;10.00;;;17.20;97.50;;;;;;5054752;28;20237;-81
2021/07/30 23:31:21;;;;;;;12.87;9.70;;;17.10;98.00;;;;;;5047525;28;20216;-81
2021/07/30 23:34:06;;;;;;;12.60;9.80;;;17.10;98.10;;;;;;5053347;28;20201;-80
2021/07/30 23:36:35;;;;;;;11.20;9.97;;;17.00;98.60;;;;;;5049094;28;20311;-83
2021/07/30 23:39:05;;;;;;;11.37;10.27;;;16.90;99.20;;;;;;5045382;28;21044;-82
2021/07/30 23:41:34;;;;;;;12.13;9.70;;;16.80;99.30;;;;;;5039951;28;20268;-81
2021/07/30 23:44:03;;;;;;;12.07;10.77;;;16.80;99.90;;;;;;5038264;28;20206;-82